Aérodrome :
LOGIN :

S'inscrire | Disclaimer

   EN    FR    IT 

 










Légende :    VFR   VFR Marginal   IFR   IFR Intensif   IFR Très Intensif
Visi : 
Plafond : 
>= 8 km
>= 3000ft
5 à 8 km
1000 à 3000 ft
1500m à 5 km
500 à 1000 ft
800 à 1500m
200 à 500 ft
< 800m
< 200 ft
Symboles :   Orages  Brouillard  Fortes neiges  Fortes précipitations  Vent > 20 kt
SIGMETs :   Divers  Orages  Givrage  Turbulence  Onde Orograph.  Cendres Volcan.







- Altitude de l'aérodrome : 288 ft
- Code IATA : BZZ


EGVN - RAF Brize Norton

DERNIER METAR :
  • 162250Z 17004KT 9999 SCT012 BKN018 10/09 Q1019 GRN NOSIG

METARs EXPIRÉS :
  • 162150Z 19006KT 9999 FEW010 BKN022 10/09 Q1020 WHT TEMPO SCT010 GRN
  • 162050Z 19008KT 9999 FEW010 BKN024 10/09 Q1020 TEMPO SCT010

TAF AMD TAF EGVN
Valide du 16 à 21h jusqu'au 17 à 21h UTC


162113Z 1621/1721 22007KT 9999 BKN024
TEMPO 1621/1704 BKN010
PROB30
TEMPO 1621/1703 3000 BR BKN003
BECMG 1703/1705 FEW020
BECMG 1709/1711 BKN018
PROB40
TEMPO 1710/1721 SCT012
BECMG 1715/1718 FEW018
Pas de NOTAMs connus pour ce terrain.



MET'MAP, la Météo Aéronautique d'un coup d'oeil ! - Copyright ORBIFLY Décembre 2007 - Disclaimer

ORBIFLY MET'MAP TEAM :

Programmation & Développement : Alexandra Zaïnal
Conception & Développement : Baudouin d'Aumeries
Co-Programmation & Développement : Marc-Olivier Méhu
Soutien technique & logistique : Manuel Goepfert

Contact : metmap@orbifly.com




SOURCES & CREDITS :

   NOAA